Brockway, California
Current Conditions -  °F | °C
As of 6:45 AM on Friday 24 Oct 2014 (Local Time) from KTRK Reporting Station
Clear Clear  
Wind Chill: 54°   Ceiling: Unl
Heat Index: 54°   Visibility: 10mi
Dew Point: 21°   Wind: 14mph
Humidity: 28%   Direction: 230°SW
Pressure: 30.13"   Gusts: 20mph
Location:  39.278°N, 120.051°W
Report Text: KTRK 241345Z 23012G17KT 10SM SKC 12/M06 A3013 RMK NOSPECI FIRST 24HR MAX 0178 MIN 0044
Loading
Personal Weather Stations






























Interactive Weather Map
Tropical Storm Tracking
New forecast layout! Learn more

10-Day Weather Forecast

Advertisements
Track Severe Weather on mobile